Northfield, Ohio
Current Conditions -  °F | °C
As of 11:05 PM on Thursday 18 Dec 2014 (Local Time) from KBKL Reporting Station
Light Snow Light Snow  
Wind Chill: 21°   Ceiling: 1100
Heat Index: 32°   Visibility: 3mi
Dew Point: 27°   Wind: 16mph
Humidity: 82%   Direction: 240°WSW
Pressure: 30.16"   Gusts: NA
Location:  41.35°N, 81.53°W
Report Text: KBKL 190405Z 24014KT 3SM -SN OVC011 00/M03 A3016 RMK AO2 P0000 T00001028
Loading
Personal Weather Stations






























Interactive Weather Map New forecast layout! Learn more

10-Day Weather Forecast

Advertisements
Track Severe Weather on mobile